createdAt,value
2017-07-23T00:02:21.892Z,87.23
2017-07-23T00:04:49.580Z,87.47
2017-07-23T00:07:17.196Z,87.41
2017-07-23T00:09:44.810Z,88.03
2017-07-23T00:12:12.470Z,87.89
2017-07-23T00:14:40.083Z,87.46
2017-07-23T00:17:07.699Z,87.50
2017-07-23T00:19:35.351Z,87.52
2017-07-23T00:22:02.941Z,87.81
2017-07-23T00:24:30.542Z,87.65
2017-07-23T00:26:58.184Z,87.47
2017-07-23T00:29:25.796Z,87.48
2017-07-23T00:31:53.385Z,87.76
2017-07-23T00:34:21.053Z,87.88
2017-07-23T00:36:48.816Z,87.60
2017-07-23T00:39:16.458Z,87.10
2017-07-23T00:41:44.131Z,87.18
2017-07-23T00:44:11.747Z,86.89
2017-07-23T00:46:39.368Z,87.02
2017-07-23T00:49:07.055Z,87.17
2017-07-23T00:51:34.645Z,87.30
2017-07-23T00:54:02.249Z,87.21
2017-07-23T00:56:29.912Z,86.72
2017-07-23T00:58:57.497Z,87.48
2017-07-23T01:01:25.114Z,87.68
2017-07-23T01:03:53.132Z,87.87
2017-07-23T01:06:20.741Z,87.85
2017-07-23T01:08:48.360Z,87.77
2017-07-23T01:11:16.011Z,88.10
2017-07-23T01:13:43.620Z,88.13
2017-07-23T01:16:11.239Z,88.42
2017-07-23T01:18:38.891Z,88.72
2017-07-23T01:21:06.495Z,88.83
2017-07-23T01:23:34.103Z,88.56
2017-07-23T01:26:01.748Z,88.55
2017-07-23T01:28:29.345Z,88.65
2017-07-23T01:30:56.934Z,88.05
2017-07-23T01:33:24.585Z,88.30
2017-07-23T01:35:52.207Z,88.32
2017-07-23T01:38:19.835Z,88.48
2017-07-23T01:40:47.509Z,87.63
2017-07-23T01:43:15.114Z,88.14
2017-07-23T01:45:42.743Z,88.17
2017-07-23T01:48:10.410Z,87.12
2017-07-23T01:50:38.050Z,87.35
2017-07-23T01:53:05.682Z,87.38
2017-07-23T01:55:33.371Z,87.82
2017-07-23T01:58:00.992Z,88.55
2017-07-23T02:00:28.616Z,89.08
2017-07-23T02:02:56.282Z,88.95
2017-07-23T02:05:23.900Z,89.25
2017-07-23T02:07:51.527Z,89.14
2017-07-23T02:10:19.209Z,89.02
2017-07-23T02:12:46.835Z,88.92
2017-07-23T02:15:14.456Z,88.69
2017-07-23T02:17:42.147Z,88.44
2017-07-23T02:20:09.762Z,88.16
2017-07-23T02:22:37.388Z,88.47
2017-07-23T02:25:05.076Z,88.90
2017-07-23T02:27:32.697Z,89.13
2017-07-23T02:30:00.327Z,88.70
2017-07-23T02:32:28.018Z,88.97
2017-07-23T02:34:55.642Z,89.30
2017-07-23T02:37:23.261Z,88.37
2017-07-23T02:39:50.916Z,88.61
2017-07-23T02:42:18.533Z,88.60
2017-07-23T02:44:46.163Z,89.14
2017-07-23T02:47:13.841Z,89.53
2017-07-23T02:49:41.458Z,88.84
2017-07-23T02:52:09.090Z,88.54
2017-07-23T02:54:36.763Z,88.48
2017-07-23T02:57:04.379Z,88.47
2017-07-23T02:59:31.986Z,88.57
2017-07-23T03:01:59.653Z,88.64
2017-07-23T03:04:27.261Z,87.85
2017-07-23T03:06:54.894Z,87.96
2017-07-23T03:09:22.569Z,87.96
2017-07-23T03:11:50.350Z,88.28
2017-07-23T03:14:17.958Z,88.46
2017-07-23T03:16:45.642Z,88.58
2017-07-23T03:19:13.273Z,88.31
2017-07-23T03:21:40.905Z,88.26
2017-07-23T03:24:08.583Z,87.52
2017-07-23T03:26:36.207Z,86.95
2017-07-23T03:29:03.820Z,85.06
2017-07-23T03:31:31.490Z,84.69
2017-07-23T03:33:59.102Z,84.82
2017-07-23T03:36:26.723Z,83.94
2017-07-23T03:38:54.387Z,83.20
2017-07-23T03:41:21.999Z,82.71
2017-07-23T03:43:49.620Z,81.40
2017-07-23T03:46:17.316Z,81.14
2017-07-23T03:48:44.935Z,80.95
2017-07-23T03:51:12.554Z,79.31
2017-07-23T03:53:40.215Z,73.86
2017-07-23T03:56:07.831Z,68.42
2017-07-23T03:58:35.441Z,64.73
2017-07-23T04:01:03.107Z,61.33
2017-07-23T04:03:30.727Z,58.95
2017-07-23T04:05:58.345Z,57.84
2017-07-23T04:08:26.019Z,56.03
2017-07-23T04:10:53.703Z,53.29
2017-07-23T04:13:21.319Z,51.83
2017-07-23T04:15:48.995Z,49.89
2017-07-23T04:18:16.624Z,50.02
2017-07-23T04:20:44.256Z,48.45
2017-07-23T04:23:11.922Z,48.61
2017-07-23T04:25:39.556Z,47.84
2017-07-23T04:28:07.170Z,47.39
2017-07-23T04:30:34.873Z,46.85
2017-07-23T04:33:02.505Z,47.18
2017-07-23T04:35:30.131Z,46.39
2017-07-23T04:37:58.097Z,44.70
2017-07-23T04:40:25.982Z,42.77
2017-07-23T04:42:53.906Z,41.41
2017-07-23T04:45:21.773Z,40.56
2017-07-23T04:47:49.398Z,39.97
2017-07-23T04:50:17.209Z,39.71
2017-07-23T04:52:44.950Z,38.64
2017-07-23T04:55:12.864Z,39.81
2017-07-23T04:57:40.691Z,38.40
2017-07-23T05:00:08.703Z,37.46
2017-07-23T05:02:36.394Z,36.76
2017-07-23T05:05:04.112Z,34.89
2017-07-23T05:07:31.927Z,35.65
2017-07-23T05:09:59.747Z,34.84
2017-07-23T05:12:27.614Z,34.67
2017-07-23T05:14:55.292Z,34.59
2017-07-23T05:17:22.919Z,33.31
2017-07-23T05:19:50.547Z,33.34
2017-07-23T05:22:18.233Z,32.52
2017-07-23T05:24:45.865Z,31.97
2017-07-23T05:27:13.897Z,34.15
2017-07-23T05:29:41.577Z,34.19
2017-07-23T05:32:09.186Z,35.30
2017-07-23T05:34:36.793Z,34.88
2017-07-23T05:37:04.497Z,31.87
2017-07-23T05:39:32.127Z,32.36
2017-07-23T05:41:59.746Z,33.46
2017-07-23T05:44:27.408Z,34.91
2017-07-23T05:46:55.010Z,36.45
2017-07-23T05:49:22.636Z,36.12
2017-07-23T05:51:50.337Z,35.39
2017-07-23T05:54:17.947Z,31.50
2017-07-23T05:56:45.563Z,30.65
2017-07-23T05:59:13.353Z,30.23
2017-07-23T06:01:40.972Z,32.01
2017-07-23T06:04:08.604Z,31.59
2017-07-23T06:06:36.280Z,28.94
2017-07-23T06:09:03.998Z,30.06
2017-07-23T06:11:31.647Z,28.84
2017-07-23T06:13:59.323Z,28.24
2017-07-23T06:16:26.917Z,29.03
2017-07-23T06:18:54.561Z,31.14
2017-07-23T06:21:22.222Z,33.61
2017-07-23T06:23:49.841Z,36.26
2017-07-23T06:26:17.456Z,37.58
2017-07-23T06:28:45.147Z,38.32
2017-07-23T06:31:12.766Z,40.76
2017-07-23T06:33:40.387Z,42.58
2017-07-23T06:36:08.075Z,42.26
2017-07-23T06:38:35.689Z,43.59
2017-07-23T06:41:03.311Z,42.59
2017-07-23T06:43:30.994Z,37.58
2017-07-23T06:45:58.614Z,35.41
2017-07-23T06:48:26.458Z,33.25
2017-07-23T06:50:54.528Z,30.69
2017-07-23T06:53:22.157Z,29.64
2017-07-23T06:55:49.765Z,28.32
2017-07-23T06:58:17.425Z,27.74
2017-07-23T07:00:45.035Z,25.14
2017-07-23T07:03:12.651Z,25.57
2017-07-23T07:05:41.821Z,27.02
2017-07-23T07:08:09.538Z,27.33
2017-07-23T07:10:37.173Z,27.12
2017-07-23T07:13:04.834Z,25.91
2017-07-23T07:15:32.445Z,25.46
2017-07-23T07:18:00.067Z,26.54
2017-07-23T07:20:27.773Z,26.45
2017-07-23T07:22:55.452Z,27.37
2017-07-23T07:25:23.065Z,27.48
2017-07-23T07:27:50.748Z,27.14
2017-07-23T07:30:18.361Z,26.80
2017-07-23T07:32:45.958Z,29.68
2017-07-23T07:35:13.636Z,29.43
2017-07-23T07:37:41.280Z,29.49
2017-07-23T07:40:08.911Z,29.08
2017-07-23T07:42:36.599Z,27.20
2017-07-23T07:45:04.225Z,28.14
2017-07-23T07:47:31.853Z,26.70
2017-07-23T07:49:59.767Z,26.04
2017-07-23T07:52:27.376Z,25.35
2017-07-23T07:54:54.999Z,25.75
2017-07-23T07:57:22.688Z,25.29
2017-07-23T07:59:50.349Z,27.08
2017-07-23T08:02:17.973Z,26.75
2017-07-23T08:04:45.767Z,26.19
2017-07-23T08:07:13.408Z,26.92
2017-07-23T08:09:41.006Z,25.80
2017-07-23T08:12:08.664Z,25.13
2017-07-23T08:14:36.523Z,24.75
2017-07-23T08:17:04.514Z,23.83
2017-07-23T08:19:32.413Z,25.35
2017-07-23T08:22:00.124Z,26.35
2017-07-23T08:24:28.090Z,27.81
2017-07-23T08:26:55.910Z,26.43
2017-07-23T08:29:23.881Z,25.04
2017-07-23T08:31:51.818Z,25.41
2017-07-23T08:34:19.561Z,24.96
2017-07-23T08:36:47.480Z,25.68
2017-07-23T08:39:15.221Z,24.54
2017-07-23T08:41:43.015Z,24.53
2017-07-23T08:44:10.728Z,25.27
2017-07-23T08:46:38.551Z,23.86
2017-07-23T08:49:06.218Z,24.62
2017-07-23T08:51:33.829Z,25.91
2017-07-23T08:54:01.439Z,24.98
2017-07-23T08:56:29.137Z,26.28
2017-07-23T08:58:56.748Z,25.62
2017-07-23T09:01:24.380Z,25.36
2017-07-23T09:03:52.063Z,25.91
2017-07-23T09:06:19.676Z,25.60
2017-07-23T09:08:47.324Z,25.60
2017-07-23T09:11:15.003Z,27.59
2017-07-23T09:13:42.622Z,26.30
2017-07-23T09:16:10.231Z,24.35
2017-07-23T09:18:37.922Z,24.79
2017-07-23T09:21:05.531Z,23.86
2017-07-23T09:23:33.165Z,23.97
2017-07-23T09:26:00.826Z,24.58
2017-07-23T09:28:28.459Z,25.18
2017-07-23T09:30:56.076Z,24.50
2017-07-23T09:33:24.116Z,23.88
2017-07-23T09:35:51.734Z,23.40
2017-07-23T09:38:19.340Z,22.85
2017-07-23T09:40:47.098Z,24.87
2017-07-23T09:43:14.692Z,22.79
2017-07-23T09:45:42.284Z,24.74
2017-07-23T09:48:09.940Z,22.87
2017-07-23T09:50:37.542Z,22.99
2017-07-23T09:53:05.138Z,23.49
2017-07-23T09:55:32.798Z,25.50
2017-07-23T09:58:00.408Z,24.47
2017-07-23T10:00:28.051Z,23.48
2017-07-23T10:02:55.695Z,25.01
2017-07-23T10:05:23.321Z,24.80
2017-07-23T10:07:50.952Z,23.82
2017-07-23T10:10:18.596Z,22.63
2017-07-23T10:12:46.200Z,22.39
2017-07-23T10:15:13.807Z,21.56
2017-07-23T10:17:41.632Z,22.40
2017-07-23T10:20:09.217Z,23.86
2017-07-23T10:22:36.815Z,22.89
2017-07-23T10:25:04.456Z,22.12
2017-07-23T10:27:32.051Z,19.85
2017-07-23T10:29:59.638Z,21.75
2017-07-23T10:32:27.399Z,21.09
2017-07-23T10:34:55.262Z,20.76
2017-07-23T10:37:22.883Z,21.96
2017-07-23T10:39:50.553Z,21.70
2017-07-23T10:42:18.147Z,20.36
2017-07-23T10:44:45.742Z,22.14
2017-07-23T10:47:13.394Z,21.95
2017-07-23T10:49:40.998Z,21.46
2017-07-23T10:52:08.609Z,21.17
2017-07-23T10:54:36.265Z,19.71
2017-07-23T10:57:03.864Z,21.31
2017-07-23T10:59:31.481Z,19.81
2017-07-23T11:01:59.135Z,20.25
2017-07-23T11:04:26.724Z,21.08
2017-07-23T11:06:54.323Z,20.37
2017-07-23T11:09:22.002Z,19.46
2017-07-23T11:11:49.588Z,19.37
2017-07-23T11:14:17.195Z,20.81
2017-07-23T11:16:44.861Z,20.13
2017-07-23T11:19:12.458Z,21.72
2017-07-23T11:21:40.037Z,20.88
2017-07-23T11:24:07.704Z,22.13
2017-07-23T11:26:35.373Z,22.07
2017-07-23T11:29:03.074Z,19.21
2017-07-23T11:31:30.717Z,21.35
2017-07-23T11:33:58.331Z,21.84
2017-07-23T11:36:25.990Z,19.64
2017-07-23T11:38:53.663Z,20.42
2017-07-23T11:41:21.313Z,21.24
2017-07-23T11:43:48.929Z,22.42
2017-07-23T11:46:16.620Z,20.09
2017-07-23T11:48:44.301Z,20.70
2017-07-23T11:51:11.918Z,20.67
2017-07-23T11:53:39.604Z,22.03
2017-07-23T11:56:07.275Z,20.61
2017-07-23T11:58:34.896Z,20.06
2017-07-23T12:01:02.536Z,19.12
2017-07-23T12:03:30.130Z,20.37
2017-07-23T12:05:57.731Z,19.20
2017-07-23T12:08:25.392Z,20.33
2017-07-23T12:10:53.001Z,19.41
2017-07-23T12:13:20.615Z,19.57
2017-07-23T12:15:48.256Z,20.24
2017-07-23T12:18:15.879Z,20.70
2017-07-23T12:20:43.498Z,21.88
2017-07-23T12:23:11.164Z,23.66
2017-07-23T12:25:38.756Z,22.46
2017-07-23T12:28:06.392Z,20.03
2017-07-23T12:30:34.048Z,19.31
2017-07-23T12:33:01.727Z,19.02
2017-07-23T12:35:29.383Z,19.79
2017-07-23T12:37:57.119Z,20.10
2017-07-23T12:40:24.737Z,19.02
2017-07-23T12:42:52.448Z,21.74
2017-07-23T12:45:20.107Z,19.92
2017-07-23T12:47:47.729Z,21.37
2017-07-23T12:50:16.067Z,21.72
2017-07-23T12:52:43.743Z,23.07
2017-07-23T12:55:11.350Z,24.79
2017-07-23T12:57:38.947Z,24.71
2017-07-23T13:00:06.715Z,26.62
2017-07-23T13:02:34.369Z,25.48
2017-07-23T13:05:02.027Z,26.86
2017-07-23T13:07:29.708Z,24.91
2017-07-23T13:09:57.327Z,24.47
2017-07-23T13:12:24.927Z,24.42
2017-07-23T13:14:52.651Z,27.39
2017-07-23T13:17:20.246Z,25.38
2017-07-23T13:19:47.851Z,24.23
2017-07-23T13:22:15.492Z,24.15
2017-07-23T13:24:43.178Z,24.60
2017-07-23T13:27:10.782Z,26.13
2017-07-23T13:29:38.478Z,25.66
2017-07-23T13:32:06.073Z,25.95
2017-07-23T13:34:33.674Z,26.23
2017-07-23T13:37:01.345Z,26.90
2017-07-23T13:39:29.004Z,25.93
2017-07-23T13:41:56.615Z,26.44
2017-07-23T13:44:24.282Z,26.23
2017-07-23T13:46:51.898Z,28.33
2017-07-23T13:49:19.515Z,27.45
2017-07-23T13:51:47.163Z,27.99
2017-07-23T13:54:14.774Z,29.13
2017-07-23T13:56:42.382Z,29.72
2017-07-23T13:59:10.054Z,30.82
2017-07-23T14:01:37.645Z,29.85
2017-07-23T14:04:05.246Z,29.43
2017-07-23T14:06:32.928Z,28.80
2017-07-23T14:09:00.529Z,29.34
2017-07-23T14:11:28.322Z,30.18
2017-07-23T14:13:55.937Z,29.08
2017-07-23T14:16:23.538Z,29.22
2017-07-23T14:18:51.206Z,29.74
2017-07-23T14:21:18.824Z,31.11
2017-07-23T14:23:46.452Z,30.69
2017-07-23T14:26:14.094Z,32.49
2017-07-23T14:28:41.725Z,30.80
2017-07-23T14:31:10.236Z,31.63
2017-07-23T14:33:37.896Z,33.47
2017-07-23T14:36:05.512Z,31.15
2017-07-23T14:38:33.122Z,32.68
2017-07-23T14:41:00.929Z,30.57
2017-07-23T14:43:28.523Z,29.22
2017-07-23T14:45:56.138Z,30.77
2017-07-23T14:48:23.796Z,31.80
2017-07-23T14:50:51.408Z,32.16
2017-07-23T14:53:19.025Z,30.22
2017-07-23T14:55:46.707Z,30.78
2017-07-23T14:58:14.309Z,31.72
2017-07-23T15:00:41.908Z,33.26
2017-07-23T15:03:09.565Z,33.35
2017-07-23T15:05:37.165Z,35.99
2017-07-23T15:08:04.763Z,35.07
2017-07-23T15:10:32.432Z,35.72
2017-07-23T15:13:00.021Z,35.38
2017-07-23T15:15:27.618Z,35.75
2017-07-23T15:17:55.276Z,36.46
2017-07-23T15:20:22.870Z,35.28
2017-07-23T15:22:50.475Z,35.54
2017-07-23T15:25:18.134Z,37.85
2017-07-23T15:27:45.822Z,38.93
2017-07-23T15:30:13.409Z,35.85
2017-07-23T15:32:41.058Z,37.96
2017-07-23T15:35:08.714Z,38.15
2017-07-23T15:37:36.328Z,37.81
2017-07-23T15:40:03.982Z,37.19
2017-07-23T15:42:31.698Z,36.28
2017-07-23T15:44:59.301Z,33.79
2017-07-23T15:47:26.950Z,35.17
2017-07-23T15:49:54.577Z,35.75
2017-07-23T15:52:22.186Z,35.90
2017-07-23T15:54:49.890Z,39.61
2017-07-23T15:57:17.511Z,38.33
2017-07-23T15:59:45.142Z,40.33
2017-07-23T16:02:12.839Z,40.77
2017-07-23T16:04:40.458Z,41.31
2017-07-23T16:07:08.080Z,43.47
2017-07-23T16:09:35.738Z,44.64
2017-07-23T16:12:03.350Z,46.60
2017-07-23T16:14:30.963Z,48.00
2017-07-23T16:16:58.652Z,48.83
2017-07-23T16:19:26.286Z,50.12
2017-07-23T16:21:53.950Z,50.29
2017-07-23T16:24:21.631Z,51.08
2017-07-23T16:26:49.247Z,51.52
2017-07-23T16:29:16.911Z,51.00
2017-07-23T16:31:44.573Z,50.45
2017-07-23T16:34:12.187Z,51.26
2017-07-23T16:36:39.827Z,52.20
2017-07-23T16:39:07.528Z,52.29
2017-07-23T16:41:35.143Z,52.83
2017-07-23T16:44:02.789Z,52.00
2017-07-23T16:46:30.445Z,50.69
2017-07-23T16:48:58.077Z,52.68
2017-07-23T16:51:25.695Z,52.32
2017-07-23T16:53:53.375Z,52.58
2017-07-23T16:56:20.996Z,53.06
2017-07-23T16:58:48.630Z,53.15
2017-07-23T17:01:16.284Z,54.76
2017-07-23T17:03:43.889Z,56.71
2017-07-23T17:06:11.503Z,56.67
2017-07-23T17:08:39.168Z,56.43
2017-07-23T17:11:06.793Z,59.65
2017-07-23T17:13:34.414Z,59.61
2017-07-23T17:16:02.078Z,61.04
2017-07-23T17:18:29.702Z,59.95
2017-07-23T17:20:57.323Z,62.07
2017-07-23T17:23:25.014Z,63.37
2017-07-23T17:25:52.679Z,62.15
2017-07-23T17:28:20.317Z,60.43
2017-07-23T17:30:48.037Z,61.07
2017-07-23T17:33:15.664Z,61.81
2017-07-23T17:35:43.290Z,62.32
2017-07-23T17:38:10.971Z,64.03
2017-07-23T17:40:38.591Z,64.46
2017-07-23T17:43:06.235Z,66.69
2017-07-23T17:45:33.923Z,64.57
2017-07-23T17:48:01.612Z,65.73
2017-07-23T17:50:29.238Z,67.40
2017-07-23T17:52:56.914Z,69.39
2017-07-23T17:55:24.525Z,69.43
2017-07-23T17:57:52.173Z,69.17
2017-07-23T18:00:19.851Z,68.54
2017-07-23T18:02:47.574Z,69.36
2017-07-23T18:05:15.233Z,69.69
2017-07-23T18:07:42.975Z,70.48
2017-07-23T18:10:10.680Z,67.09
2017-07-23T18:12:38.322Z,66.98
2017-07-23T18:15:06.080Z,66.63
2017-07-23T18:17:33.755Z,67.71
2017-07-23T18:20:01.640Z,70.15
2017-07-23T18:22:29.451Z,70.28
2017-07-23T18:24:57.179Z,70.46
2017-07-23T18:27:24.961Z,69.89
2017-07-23T18:29:52.868Z,70.46
2017-07-23T18:32:20.802Z,70.04
2017-07-23T18:34:48.722Z,70.43
2017-07-23T18:37:16.648Z,71.97
2017-07-23T18:39:44.684Z,70.85
2017-07-23T18:42:12.464Z,72.04
2017-07-23T18:44:40.537Z,73.27
2017-07-23T18:47:08.573Z,74.61
2017-07-23T18:49:36.497Z,74.68
2017-07-23T18:52:04.532Z,74.73
2017-07-23T18:54:32.627Z,74.94
2017-07-23T18:57:00.472Z,75.94
2017-07-23T18:59:28.573Z,73.40
2017-07-23T19:01:56.532Z,74.48
2017-07-23T19:04:24.560Z,72.73
2017-07-23T19:06:52.520Z,71.49
2017-07-23T19:09:20.590Z,71.99
2017-07-23T19:11:48.809Z,72.03
2017-07-23T19:14:16.992Z,72.84
2017-07-23T19:16:45.031Z,73.52
2017-07-23T19:19:12.976Z,73.24
2017-07-23T19:21:40.966Z,73.22
2017-07-23T19:24:09.024Z,73.93
2017-07-23T19:26:37.078Z,74.26
2017-07-23T19:29:05.059Z,75.08
2017-07-23T19:31:33.921Z,76.68
2017-07-23T19:34:01.742Z,77.60
2017-07-23T19:36:29.740Z,76.56
2017-07-23T19:38:57.600Z,76.04
2017-07-23T19:41:25.522Z,76.07
2017-07-23T19:43:53.404Z,76.76
2017-07-23T19:46:21.267Z,77.69
2017-07-23T19:48:49.003Z,78.28
2017-07-23T19:51:16.803Z,78.52
2017-07-23T19:53:44.566Z,77.57
2017-07-23T19:56:12.223Z,76.95
2017-07-23T19:58:40.052Z,75.81
2017-07-23T20:01:07.671Z,76.04
2017-07-23T20:03:35.369Z,75.88
2017-07-23T20:06:03.042Z,76.77
2017-07-23T20:08:30.712Z,76.84
2017-07-23T20:10:58.470Z,76.95
2017-07-23T20:13:26.145Z,77.26
2017-07-23T20:15:53.888Z,77.43
2017-07-23T20:18:21.602Z,77.10
2017-07-23T20:20:49.305Z,76.62
2017-07-23T20:23:16.940Z,76.46
2017-07-23T20:25:44.573Z,76.73
2017-07-23T20:28:12.315Z,76.98
2017-07-23T20:30:39.917Z,77.21
2017-07-23T20:33:07.550Z,77.62
2017-07-23T20:35:35.225Z,77.96
2017-07-23T20:38:02.878Z,78.07
2017-07-23T20:40:30.512Z,78.61
2017-07-23T20:42:58.225Z,78.30
2017-07-23T20:45:25.854Z,78.18
2017-07-23T20:47:53.466Z,78.71
2017-07-23T20:50:21.167Z,79.62
2017-07-23T20:52:48.774Z,79.95
2017-07-23T20:55:16.375Z,80.82
2017-07-23T20:57:44.068Z,80.65
2017-07-23T21:00:11.693Z,80.52
2017-07-23T21:02:39.307Z,80.50
2017-07-23T21:05:07.025Z,80.42
2017-07-23T21:07:34.661Z,80.06
2017-07-23T21:10:02.269Z,80.13
2017-07-23T21:12:29.944Z,80.08
2017-07-23T21:14:57.566Z,80.16
2017-07-23T21:17:25.178Z,80.22
2017-07-23T21:19:52.886Z,80.64
2017-07-23T21:22:20.676Z,81.86
2017-07-23T21:24:48.305Z,81.56
2017-07-23T21:27:15.976Z,81.75
2017-07-23T21:29:43.565Z,82.58
2017-07-23T21:32:11.172Z,82.81
2017-07-23T21:34:38.839Z,82.31
2017-07-23T21:37:06.473Z,81.98
2017-07-23T21:39:34.089Z,82.28
2017-07-23T21:42:01.756Z,81.92
2017-07-23T21:44:29.360Z,82.18
2017-07-23T21:46:56.989Z,82.84
2017-07-23T21:49:24.675Z,82.91
2017-07-23T21:51:52.294Z,83.24
2017-07-23T21:54:19.920Z,83.90
2017-07-23T21:56:47.594Z,84.27
2017-07-23T21:59:15.349Z,84.81
2017-07-23T22:01:42.951Z,84.26
2017-07-23T22:04:10.633Z,84.28
2017-07-23T22:06:38.244Z,83.94
2017-07-23T22:09:05.840Z,84.16
2017-07-23T22:11:33.535Z,84.24
2017-07-23T22:14:01.163Z,83.95
2017-07-23T22:16:28.802Z,84.02
2017-07-23T22:18:56.465Z,84.36
2017-07-23T22:21:24.067Z,84.65
2017-07-23T22:23:51.689Z,84.61
2017-07-23T22:26:19.353Z,84.66
2017-07-23T22:28:46.964Z,84.29
2017-07-23T22:31:14.576Z,84.13
2017-07-23T22:33:42.249Z,84.27
2017-07-23T22:36:09.863Z,84.13
2017-07-23T22:38:37.465Z,84.41
2017-07-23T22:41:05.137Z,84.44
2017-07-23T22:43:32.772Z,84.45
2017-07-23T22:46:00.379Z,84.89
2017-07-23T22:48:28.064Z,85.77
2017-07-23T22:50:55.685Z,86.03
2017-07-23T22:53:23.287Z,86.12
2017-07-23T22:55:50.954Z,86.09
2017-07-23T22:58:18.569Z,85.65
2017-07-23T23:00:46.183Z,85.59
2017-07-23T23:03:13.864Z,85.66
2017-07-23T23:05:41.490Z,85.45
2017-07-23T23:08:09.102Z,85.71
2017-07-23T23:10:36.785Z,85.95
2017-07-23T23:13:04.392Z,85.73
2017-07-23T23:15:32.076Z,85.73
2017-07-23T23:17:59.733Z,85.38
2017-07-23T23:20:27.365Z,85.58
2017-07-23T23:22:55.022Z,85.87
2017-07-23T23:25:22.708Z,86.29
2017-07-23T23:27:50.316Z,86.83
2017-07-23T23:30:17.925Z,86.78
2017-07-23T23:32:45.594Z,86.80
2017-07-23T23:35:13.234Z,86.83
2017-07-23T23:37:40.861Z,86.88
2017-07-23T23:40:08.564Z,87.07
2017-07-23T23:42:36.187Z,87.14
2017-07-23T23:45:03.835Z,87.04
2017-07-23T23:47:31.520Z,87.01
2017-07-23T23:49:59.145Z,87.03
2017-07-23T23:52:26.761Z,87.10
2017-07-23T23:54:55.195Z,87.13
2017-07-23T23:57:22.842Z,87.53
2017-07-23T23:59:50.476Z,87.69
